createdAt,value
2024-01-05T00:00:03.348Z,97796.06
2024-01-05T00:02:34.400Z,97806.88
2024-01-05T00:05:01.334Z,97798.16
2024-01-05T00:07:28.432Z,97801.41
2024-01-05T00:09:55.391Z,97805.63
2024-01-05T00:12:22.515Z,97802.66
2024-01-05T00:14:49.605Z,97804.13
2024-01-05T00:17:17.075Z,97808.19
2024-01-05T00:19:44.052Z,97811.63
2024-01-05T00:22:11.322Z,97807.09
2024-01-05T00:24:38.636Z,97804.88
2024-01-05T00:27:05.926Z,97808.25
2024-01-05T00:29:32.764Z,97812.25
2024-01-05T00:31:59.677Z,97815.81
2024-01-05T00:34:26.679Z,97810.59
2024-01-05T00:36:53.868Z,97816.97
2024-01-05T00:39:20.831Z,97816.16
2024-01-05T00:41:49.214Z,97821.53
2024-01-05T00:44:16.511Z,97818.81
2024-01-05T00:46:44.024Z,97820.19
2024-01-05T00:49:11.340Z,97818.41
2024-01-05T00:51:38.427Z,97822.28
2024-01-05T00:54:05.509Z,97829.03
2024-01-05T00:56:32.595Z,97825.38
2024-01-05T00:58:59.598Z,97825.28
2024-01-05T01:01:26.569Z,97835.25
2024-01-05T01:03:53.665Z,97828.00
2024-01-05T01:06:20.867Z,97839.19
2024-01-05T01:08:47.986Z,97825.28
2024-01-05T01:11:16.309Z,97831.09
2024-01-05T01:13:44.140Z,97834.28
2024-01-05T01:16:12.728Z,97826.09
2024-01-05T01:18:40.602Z,97826.97
2024-01-05T01:21:08.385Z,97831.09
2024-01-05T01:23:35.407Z,97830.81
2024-01-05T01:26:02.403Z,97826.38
2024-01-05T01:28:30.314Z,97827.91
2024-01-05T01:30:58.183Z,97836.63
2024-01-05T01:33:25.622Z,97834.56
2024-01-05T01:35:52.886Z,97833.72
2024-01-05T01:38:20.202Z,97836.19
2024-01-05T01:40:48.502Z,97842.94
2024-01-05T01:43:33.484Z,97838.63
2024-01-05T01:46:02.085Z,97836.56
2024-01-05T01:48:31.238Z,97835.97
2024-01-05T01:51:00.062Z,97840.69
2024-01-05T01:53:28.498Z,97835.63
2024-01-05T01:55:56.213Z,97839.28
2024-01-05T01:58:24.236Z,97839.19
2024-01-05T02:00:52.498Z,97840.97
2024-01-05T02:03:20.439Z,97845.09
2024-01-05T02:05:49.518Z,97847.50
2024-01-05T02:08:17.292Z,97841.09
2024-01-05T02:10:44.368Z,97847.47
2024-01-05T02:13:11.715Z,97840.03
2024-01-05T02:15:38.807Z,97843.94
2024-01-05T02:18:13.185Z,97852.19
2024-01-05T02:20:40.311Z,97856.94
2024-01-05T02:23:14.579Z,97857.72
2024-01-05T02:25:41.828Z,97858.06
2024-01-05T02:28:08.728Z,97856.44
2024-01-05T02:30:35.697Z,97852.50
2024-01-05T02:35:29.850Z,97864.00
2024-01-05T02:37:56.851Z,97857.84
2024-01-05T02:40:23.785Z,97868.06
2024-01-05T02:42:50.738Z,97869.84
2024-01-05T02:45:22.088Z,97866.06
2024-01-05T02:47:52.837Z,97873.81
2024-01-05T02:50:21.654Z,97874.25
2024-01-05T02:52:48.649Z,97872.91
2024-01-05T02:55:15.568Z,97870.38
2024-01-05T02:57:42.603Z,97876.28
2024-01-05T03:00:10.206Z,97876.63
2024-01-05T03:02:37.255Z,97875.97
2024-01-05T03:05:06.374Z,97871.06
2024-01-05T03:07:33.503Z,97878.91
2024-01-05T03:10:00.507Z,97880.47
2024-01-05T03:12:27.676Z,97888.94
2024-01-05T03:14:54.828Z,97879.13
2024-01-05T03:17:22.236Z,97885.63
2024-01-05T03:19:49.392Z,97882.63
2024-01-05T03:22:16.531Z,97887.06
2024-01-05T03:24:45.179Z,97882.38
2024-01-05T03:27:16.361Z,97879.66
2024-01-05T03:29:43.498Z,97886.41
2024-01-05T03:32:10.708Z,97884.63
2024-01-05T03:34:38.817Z,97890.84
2024-01-05T03:37:05.867Z,97894.50
2024-01-05T03:39:33.303Z,97892.56
2024-01-05T03:42:00.834Z,97904.56
2024-01-05T03:44:28.169Z,97890.66
2024-01-05T03:46:55.079Z,97905.38
2024-01-05T03:49:22.170Z,97902.22
2024-01-05T03:51:49.786Z,97909.53
2024-01-05T03:54:16.719Z,97910.69
2024-01-05T03:56:47.596Z,97911.28
2024-01-05T03:59:15.592Z,97913.94
2024-01-05T04:01:50.989Z,97915.47
2024-01-05T04:04:18.137Z,97926.28
2024-01-05T04:06:46.162Z,97922.28
2024-01-05T04:09:13.747Z,97923.88
2024-01-05T04:11:41.077Z,97925.25
2024-01-05T04:14:08.842Z,97932.66
2024-01-05T04:16:36.244Z,97934.59
2024-01-05T04:19:03.986Z,97932.13
2024-01-05T04:21:32.266Z,97936.78
2024-01-05T04:23:59.759Z,97942.03
2024-01-05T04:26:27.409Z,97942.78
2024-01-05T04:28:54.452Z,97953.81
2024-01-05T04:31:22.020Z,97953.56
2024-01-05T04:33:49.332Z,97955.88
2024-01-05T04:36:20.352Z,97961.56
2024-01-05T04:38:47.632Z,97956.00
2024-01-05T04:41:16.818Z,97956.59
2024-01-05T04:43:47.096Z,97955.50
2024-01-05T04:46:14.124Z,97960.31
2024-01-05T04:48:41.260Z,97961.81
2024-01-05T04:51:08.446Z,97964.03
2024-01-05T04:53:37.066Z,97963.09
2024-01-05T04:56:04.711Z,97966.56
2024-01-05T04:58:32.528Z,97970.28
2024-01-05T05:00:59.932Z,97974.38
2024-01-05T05:03:28.304Z,97974.44
2024-01-05T05:05:55.514Z,97973.19
2024-01-05T05:08:23.141Z,97973.78
2024-01-05T05:10:50.206Z,97974.88
2024-01-05T05:13:17.211Z,97980.47
2024-01-05T05:15:44.526Z,97980.47
2024-01-05T05:18:11.741Z,97992.16
2024-01-05T05:20:38.966Z,97996.91
2024-01-05T05:23:05.913Z,98008.41
2024-01-05T05:25:33.397Z,98002.94
2024-01-05T05:28:00.590Z,98012.00
2024-01-05T05:30:27.578Z,98015.13
2024-01-05T05:32:55.029Z,98014.72
2024-01-05T05:35:22.091Z,98026.63
2024-01-05T05:37:49.066Z,98021.28
2024-01-05T05:40:16.569Z,98025.91
2024-01-05T05:42:45.086Z,98035.75
2024-01-05T05:45:12.376Z,98037.81
2024-01-05T05:47:40.024Z,98043.72
2024-01-05T05:50:08.066Z,98044.25
2024-01-05T05:52:36.523Z,98048.50
2024-01-05T05:55:04.180Z,98056.13
2024-01-05T05:57:34.871Z,98047.81
2024-01-05T06:00:01.990Z,98060.19
2024-01-05T06:02:28.984Z,98071.56
2024-01-05T06:04:56.359Z,98064.69
2024-01-05T06:07:26.907Z,98074.53
2024-01-05T06:09:54.362Z,98080.31
2024-01-05T06:12:22.211Z,98066.91
2024-01-05T06:14:49.760Z,98079.88
2024-01-05T06:17:19.782Z,98093.78
2024-01-05T06:19:47.159Z,98089.13
2024-01-05T06:22:18.097Z,98097.38
2024-01-05T06:24:48.137Z,98101.84
2024-01-05T06:27:21.913Z,98101.00
2024-01-05T06:29:52.833Z,98119.00
2024-01-05T06:32:19.963Z,98114.31
2024-01-05T06:34:47.172Z,98124.25
2024-01-05T06:37:14.331Z,98131.72
2024-01-05T06:39:41.593Z,98132.66
2024-01-05T06:42:09.355Z,98124.69
2024-01-05T06:44:38.613Z,98147.06
2024-01-05T06:47:06.561Z,98147.22
2024-01-05T06:49:37.768Z,98156.66
2024-01-05T06:52:05.686Z,98159.44
2024-01-05T06:54:33.361Z,98166.81
2024-01-05T06:57:01.004Z,98164.41
2024-01-05T06:59:31.645Z,98164.66
2024-01-05T07:01:59.219Z,98173.22
2024-01-05T07:04:26.758Z,98182.47
2024-01-05T07:06:53.999Z,98177.91
2024-01-05T07:09:21.519Z,98195.44
2024-01-05T07:11:49.697Z,98197.63
2024-01-05T07:14:20.240Z,98196.69
2024-01-05T07:16:50.648Z,98202.88
2024-01-05T07:19:19.592Z,98206.50
2024-01-05T07:21:47.698Z,98205.50
2024-01-05T07:24:16.837Z,98218.88
2024-01-05T07:26:45.070Z,98219.81
2024-01-05T07:29:13.841Z,98220.69
2024-01-05T07:31:41.199Z,98234.81
2024-01-05T07:34:09.467Z,98238.63
2024-01-05T07:36:37.562Z,98250.19
2024-01-05T07:39:06.753Z,98255.22
2024-01-05T07:41:34.514Z,98262.66
2024-01-05T07:44:02.818Z,98263.97
2024-01-05T07:46:31.644Z,98270.09
2024-01-05T07:48:59.442Z,98277.97
2024-01-05T07:51:27.253Z,98286.97
2024-01-05T07:53:54.750Z,98298.25
2024-01-05T07:56:21.965Z,98293.25
2024-01-05T07:58:49.729Z,98301.81
2024-01-05T08:01:22.978Z,98304.91
2024-01-05T08:03:51.316Z,98311.66
2024-01-05T08:06:20.691Z,98318.41
2024-01-05T08:08:49.994Z,98329.03
2024-01-05T08:11:18.387Z,98335.22
2024-01-05T08:13:48.199Z,98329.63
2024-01-05T08:16:16.333Z,98334.88
2024-01-05T08:18:44.789Z,98338.13
2024-01-05T08:21:13.111Z,98339.75
2024-01-05T08:23:40.382Z,98345.38
2024-01-05T08:26:09.046Z,98350.63
2024-01-05T08:28:36.976Z,98351.38
2024-01-05T08:31:04.671Z,98358.53
2024-01-05T08:33:32.520Z,98368.88
2024-01-05T08:36:01.061Z,98370.53
2024-01-05T08:38:28.872Z,98369.91
2024-01-05T08:40:56.079Z,98375.84
2024-01-05T08:43:24.324Z,98380.16
2024-01-05T08:45:51.881Z,98374.69
2024-01-05T08:48:19.219Z,98379.09
2024-01-05T08:50:46.314Z,98388.63
2024-01-05T08:53:13.499Z,98398.13
2024-01-05T08:55:40.459Z,98399.06
2024-01-05T08:58:07.693Z,98400.34
2024-01-05T09:00:34.976Z,98402.06
2024-01-05T09:03:03.440Z,98414.44
2024-01-05T09:05:30.878Z,98414.19
2024-01-05T09:07:57.977Z,98413.63
2024-01-05T09:10:25.123Z,98423.91
2024-01-05T09:12:52.164Z,98430.16
2024-01-05T09:15:19.677Z,98435.06
2024-01-05T09:17:46.791Z,98436.44
2024-01-05T09:20:14.039Z,98436.66
2024-01-05T09:22:41.364Z,98440.09
2024-01-05T09:25:09.674Z,98438.50
2024-01-05T09:27:37.298Z,98446.50
2024-01-05T09:30:05.155Z,98452.53
2024-01-05T09:32:32.512Z,98452.72
2024-01-05T09:34:59.554Z,98455.53
2024-01-05T09:37:26.591Z,98462.34
2024-01-05T09:39:53.817Z,98462.91
2024-01-05T09:42:20.981Z,98463.91
2024-01-05T09:44:49.783Z,98468.97
2024-01-05T09:47:19.904Z,98470.84
2024-01-05T09:49:51.497Z,98478.59
2024-01-05T09:52:21.590Z,98483.78
2024-01-05T09:54:48.685Z,98504.59
2024-01-05T09:57:19.645Z,98503.63
2024-01-05T09:59:48.582Z,98506.63
2024-01-05T10:02:41.614Z,98513.72
2024-01-05T10:05:08.748Z,98513.19
2024-01-05T10:07:45.281Z,98523.53
2024-01-05T10:10:14.272Z,98518.22
2024-01-05T10:12:42.448Z,98531.28
2024-01-05T10:15:10.095Z,98538.84
2024-01-05T10:17:37.441Z,98541.59
2024-01-05T10:20:18.629Z,98534.34
2024-01-05T10:22:48.075Z,98550.63
2024-01-05T10:25:16.794Z,98545.63
2024-01-05T10:27:44.988Z,98561.59
2024-01-05T10:30:26.303Z,98560.16
2024-01-05T10:33:10.289Z,98574.50
2024-01-05T10:35:37.745Z,98572.53
2024-01-05T10:38:05.581Z,98570.75
2024-01-05T10:40:33.513Z,98578.50
2024-01-05T10:43:16.379Z,98586.47
2024-01-05T10:45:44.382Z,98589.31
2024-01-05T10:48:15.319Z,98592.31
2024-01-05T10:50:44.853Z,98595.44
2024-01-05T10:53:13.900Z,98593.75
2024-01-05T10:55:41.677Z,98612.94
2024-01-05T10:58:09.333Z,98618.81
2024-01-05T11:00:37.914Z,98628.03
2024-01-05T11:03:15.854Z,98636.03
2024-01-05T11:05:44.400Z,98637.66
2024-01-05T11:08:26.292Z,98637.91
2024-01-05T11:11:11.935Z,98648.59
2024-01-05T11:14:03.937Z,98653.09
2024-01-05T11:16:53.654Z,98652.59
2024-01-05T11:19:26.426Z,98657.06
2024-01-05T11:22:00.855Z,98667.28
2024-01-05T11:24:29.805Z,98666.31
2024-01-05T11:26:57.052Z,98685.69
2024-01-05T11:29:52.921Z,98690.44
2024-01-05T11:32:36.900Z,98705.41
2024-01-05T11:35:25.871Z,98727.22
2024-01-05T11:37:53.266Z,98728.97
2024-01-05T11:40:30.261Z,98737.34
2024-01-05T11:43:00.498Z,98745.75
2024-01-05T11:45:45.828Z,98754.34
2024-01-05T11:48:34.983Z,98758.31
2024-01-05T11:51:09.525Z,98778.81
2024-01-05T11:53:37.488Z,98787.03
2024-01-05T11:56:09.589Z,98795.16
2024-01-05T11:58:38.156Z,98795.22
2024-01-05T12:01:08.919Z,98816.53
2024-01-05T12:03:36.094Z,98829.22
2024-01-05T12:06:05.450Z,98839.19
2024-01-05T12:08:33.625Z,98850.09
2024-01-05T12:11:04.704Z,98840.47
2024-01-05T12:13:34.455Z,98854.53
2024-01-05T12:16:06.761Z,98862.91
2024-01-05T12:18:44.349Z,98862.22
2024-01-05T12:21:14.555Z,98869.88
2024-01-05T12:23:51.801Z,98868.38
2024-01-05T12:26:19.100Z,98873.53
2024-01-05T12:28:48.075Z,98871.19
2024-01-05T12:31:15.699Z,98880.19
2024-01-05T12:33:44.137Z,98884.25
2024-01-05T12:36:14.183Z,98893.94
2024-01-05T12:38:42.106Z,98892.41
2024-01-05T12:41:19.178Z,98897.88
2024-01-05T12:43:51.748Z,98909.53
2024-01-05T12:46:20.960Z,98895.78
2024-01-05T12:48:48.213Z,98905.41
2024-01-05T12:51:22.073Z,98905.31
2024-01-05T12:54:04.986Z,98918.47
2024-01-05T12:56:32.936Z,98914.16
2024-01-05T12:59:00.234Z,98916.00
2024-01-05T13:01:28.305Z,98919.78
2024-01-05T13:03:57.584Z,98920.66
2024-01-05T13:06:32.183Z,98930.31
2024-01-05T13:09:00.892Z,98924.81
2024-01-05T13:11:28.934Z,98940.88
2024-01-05T13:13:57.440Z,98943.72
2024-01-05T13:16:24.731Z,98956.50
2024-01-05T13:18:52.010Z,98952.38
2024-01-05T13:21:19.365Z,98961.22
2024-01-05T13:23:48.377Z,98963.00
2024-01-05T13:26:16.082Z,98968.22
2024-01-05T13:28:43.273Z,98964.69
2024-01-05T13:31:12.132Z,98976.06
2024-01-05T13:33:42.504Z,98989.22
2024-01-05T13:36:10.939Z,98997.22
2024-01-05T13:38:42.647Z,98998.91
2024-01-05T13:41:12.719Z,99006.72
2024-01-05T13:43:41.388Z,99016.41
2024-01-05T13:46:11.524Z,99019.13
2024-01-05T13:48:40.356Z,99022.72
2024-01-05T13:51:08.259Z,99028.88
2024-01-05T13:53:36.507Z,99045.44
2024-01-05T13:56:06.860Z,99039.50
2024-01-05T13:58:38.373Z,99068.22
2024-01-05T14:01:06.165Z,99078.03
2024-01-05T14:03:35.325Z,99083.34
2024-01-05T14:06:06.407Z,99098.25
2024-01-05T14:08:34.349Z,99094.06
2024-01-05T14:11:04.027Z,99095.91
2024-01-05T14:13:35.400Z,99098.53
2024-01-05T14:16:03.599Z,99105.50
2024-01-05T14:18:32.313Z,99101.19
2024-01-05T14:21:00.536Z,99103.88
2024-01-05T14:23:28.131Z,99116.03
2024-01-05T14:25:56.239Z,99126.47
2024-01-05T14:28:23.448Z,99116.94
2024-01-05T14:30:50.861Z,99132.53
2024-01-05T14:33:18.263Z,99135.16
2024-01-05T14:35:46.434Z,99149.81
2024-01-05T14:38:13.695Z,99156.75
2024-01-05T14:40:40.742Z,99164.56
2024-01-05T14:43:07.776Z,99166.31
2024-01-05T14:45:34.903Z,99169.75
2024-01-05T14:48:02.100Z,99174.13
2024-01-05T14:50:29.433Z,99174.13
2024-01-05T14:53:03.985Z,99184.47
2024-01-05T14:55:35.789Z,99193.97
2024-01-05T14:58:05.157Z,99206.06
2024-01-05T15:00:32.154Z,99204.31
2024-01-05T15:03:00.866Z,99207.78
2024-01-05T15:05:27.974Z,99219.84
2024-01-05T15:07:55.097Z,99221.56
2024-01-05T15:10:23.802Z,99230.19
2024-01-05T15:12:54.225Z,99236.22
2024-01-05T15:15:21.582Z,99236.19
2024-01-05T15:17:48.741Z,99229.31
2024-01-05T15:20:17.695Z,99233.59
2024-01-05T15:22:45.433Z,99234.44
2024-01-05T15:25:16.745Z,99232.72
2024-01-05T15:27:44.199Z,99237.06
2024-01-05T15:30:13.016Z,99234.44
2024-01-05T15:32:40.322Z,99237.81
2024-01-05T15:35:10.934Z,99239.56
2024-01-05T15:37:37.909Z,99237.81
2024-01-05T15:40:05.600Z,99246.44
2024-01-05T15:42:32.802Z,99246.41
2024-01-05T15:45:00.165Z,99248.94
2024-01-05T15:47:28.951Z,99253.19
2024-01-05T15:49:56.129Z,99256.69
2024-01-05T15:52:23.196Z,99251.44
2024-01-05T15:54:50.420Z,99259.19
2024-01-05T15:57:17.446Z,99271.22
2024-01-05T15:59:44.449Z,99280.69
2024-01-05T16:02:11.406Z,99282.31
2024-01-05T16:04:38.757Z,99291.72
2024-01-05T16:07:05.910Z,99301.19
2024-01-05T16:09:33.187Z,99297.72
2024-01-05T16:12:00.536Z,99299.50
2024-01-05T16:14:27.650Z,99298.66
2024-01-05T16:16:57.194Z,99308.19
2024-01-05T16:19:25.675Z,99308.16
2024-01-05T16:21:52.853Z,99313.31
2024-01-05T16:24:20.313Z,99314.13
2024-01-05T16:26:48.806Z,99322.69
2024-01-05T16:29:16.000Z,99316.53
2024-01-05T16:31:43.776Z,99313.09
2024-01-05T16:34:11.059Z,99320.75
2024-01-05T16:36:38.146Z,99321.56
2024-01-05T16:39:07.075Z,99318.06
2024-01-05T16:41:34.222Z,99325.75
2024-01-05T16:44:01.552Z,99335.97
2024-01-05T16:46:31.080Z,99327.19
2024-01-05T16:48:58.421Z,99337.47
2024-01-05T16:51:28.000Z,99350.34
2024-01-05T16:53:56.477Z,99343.38
2024-01-05T16:56:28.606Z,99354.50
2024-01-05T16:58:57.718Z,99357.09
2024-01-05T17:01:25.548Z,99368.38
2024-01-05T17:03:56.551Z,99365.69
2024-01-05T17:06:23.952Z,99371.66
2024-01-05T17:08:51.009Z,99371.66
2024-01-05T17:11:17.987Z,99377.69
2024-01-05T17:13:45.004Z,99381.19
2024-01-05T17:16:12.021Z,99392.38
2024-01-05T17:18:40.055Z,99390.69
2024-01-05T17:21:07.272Z,99386.41
2024-01-05T17:23:34.367Z,99389.88
2024-01-05T17:26:03.558Z,99390.75
2024-01-05T17:28:30.643Z,99398.56
2024-01-05T17:30:58.272Z,99398.56
2024-01-05T17:33:26.399Z,99413.16
2024-01-05T17:35:58.564Z,99413.00
2024-01-05T17:38:26.023Z,99419.06
2024-01-05T17:40:53.133Z,99410.38
2024-01-05T17:43:20.336Z,99412.94
2024-01-05T17:45:47.887Z,99412.91
2024-01-05T17:48:15.394Z,99408.53
2024-01-05T17:50:42.898Z,99418.75
2024-01-05T17:53:11.147Z,99414.44
2024-01-05T17:55:38.153Z,99421.31
2024-01-05T17:58:05.362Z,99421.25
2024-01-05T18:00:32.465Z,99427.31
2024-01-05T18:03:00.299Z,99419.63
2024-01-05T18:05:27.362Z,99421.38
2024-01-05T18:07:57.454Z,99417.94
2024-01-05T18:10:24.521Z,99426.56
2024-01-05T18:12:51.775Z,99436.03
2024-01-05T18:15:18.875Z,99431.72
2024-01-05T18:17:45.922Z,99424.81
2024-01-05T18:20:13.261Z,99430.88
2024-01-05T18:22:40.251Z,99422.25
2024-01-05T18:25:07.603Z,99417.94
2024-01-05T18:27:34.831Z,99417.09
2024-01-05T18:30:03.856Z,99422.31
2024-01-05T18:32:31.230Z,99425.69
2024-01-05T18:34:59.540Z,99431.78
2024-01-05T18:37:26.863Z,99440.41
2024-01-05T18:39:54.219Z,99434.44
2024-01-05T18:42:21.820Z,99438.66
2024-01-05T18:44:48.758Z,99440.31
2024-01-05T18:47:16.338Z,99446.31
2024-01-05T18:49:43.436Z,99451.50
2024-01-05T18:52:10.506Z,99442.75
2024-01-05T18:54:37.518Z,99445.31
2024-01-05T18:57:04.785Z,99446.22
2024-01-05T18:59:31.795Z,99451.41
2024-01-05T19:01:59.952Z,99461.72
2024-01-05T19:04:27.153Z,99470.31
2024-01-05T19:06:54.353Z,99472.97
2024-01-05T19:09:21.484Z,99477.19
2024-01-05T19:11:48.535Z,99482.44
2024-01-05T19:14:15.925Z,99479.00
2024-01-05T19:16:44.112Z,99471.34
2024-01-05T19:19:12.717Z,99467.88
2024-01-05T19:21:49.801Z,99467.00
2024-01-05T19:24:22.856Z,99460.19
2024-01-05T19:26:50.113Z,99473.03
2024-01-05T19:29:17.052Z,99478.97
2024-01-05T19:31:44.453Z,99474.63
2024-01-05T19:34:13.330Z,99472.00
2024-01-05T19:36:45.221Z,99482.34
2024-01-05T19:39:13.142Z,99476.22
2024-01-05T19:41:44.780Z,99478.75
2024-01-05T19:44:12.235Z,99487.28
2024-01-05T19:46:39.202Z,99489.00
2024-01-05T19:49:06.488Z,99493.25
2024-01-05T19:51:33.610Z,99491.41
2024-01-05T19:54:00.711Z,99491.34
2024-01-05T19:56:27.619Z,99487.63
2024-01-05T19:58:54.764Z,99480.66
2024-01-05T20:01:21.889Z,99478.03
2024-01-05T20:03:49.354Z,99470.19
2024-01-05T20:06:16.972Z,99476.09
2024-01-05T20:08:44.160Z,99475.22
2024-01-05T20:11:14.521Z,99490.72
2024-01-05T20:13:42.298Z,99510.47
2024-01-05T20:16:10.762Z,99498.50
2024-01-05T20:18:38.554Z,99487.44
2024-01-05T20:21:14.045Z,99509.75
2024-01-05T20:23:41.336Z,99498.72
2024-01-05T20:26:10.804Z,99489.53
2024-01-05T20:28:37.720Z,99500.94
2024-01-05T20:31:05.221Z,99499.50
2024-01-05T20:33:32.546Z,99502.41
2024-01-05T20:35:59.874Z,99507.88
2024-01-05T20:38:27.034Z,99504.34
2024-01-05T20:40:53.997Z,99510.97
2024-01-05T20:43:21.031Z,99494.88
2024-01-05T20:45:48.032Z,99494.19
2024-01-05T20:48:15.924Z,99497.84
2024-01-05T20:50:43.393Z,99494.59
2024-01-05T20:53:12.082Z,99485.44
2024-01-05T20:55:39.992Z,99487.28
2024-01-05T20:58:06.986Z,99500.38
2024-01-05T21:00:34.619Z,99505.56
2024-01-05T21:03:01.688Z,99507.38
2024-01-05T21:05:30.080Z,99507.44
2024-01-05T21:07:57.069Z,99504.91
2024-01-05T21:10:24.462Z,99515.34
2024-01-05T21:12:52.903Z,99514.56
2024-01-05T21:15:20.052Z,99514.59
2024-01-05T21:17:46.997Z,99506.88
2024-01-05T21:20:14.457Z,99500.88
2024-01-05T21:22:42.074Z,99504.34
2024-01-05T21:25:10.152Z,99501.78
2024-01-05T21:27:37.647Z,99497.47
2024-01-05T21:30:06.331Z,99501.81
2024-01-05T21:32:34.407Z,99505.28
2024-01-05T21:35:02.023Z,99500.09
2024-01-05T21:37:29.278Z,99501.84
2024-01-05T21:39:56.219Z,99499.25
2024-01-05T21:42:23.339Z,99495.75
2024-01-05T21:44:51.629Z,99475.84
2024-01-05T21:47:20.804Z,99478.44
2024-01-05T21:49:48.087Z,99474.97
2024-01-05T21:52:15.226Z,99480.19
2024-01-05T21:54:42.270Z,99466.34
2024-01-05T21:57:09.600Z,99476.72
2024-01-05T21:59:37.763Z,99478.44
2024-01-05T22:02:05.813Z,99475.88
2024-01-05T22:04:34.930Z,99468.94
2024-01-05T22:07:02.365Z,99465.44
2024-01-05T22:09:29.688Z,99476.69
2024-01-05T22:11:56.830Z,99479.25
2024-01-05T22:14:23.768Z,99480.97
2024-01-05T22:16:53.929Z,99476.63
2024-01-05T22:19:21.944Z,99497.34
2024-01-05T22:21:49.159Z,99507.72
2024-01-05T22:24:16.300Z,99508.63
2024-01-05T22:26:43.336Z,99511.22
2024-01-05T22:29:10.414Z,99512.06
2024-01-05T22:31:37.659Z,99507.81
2024-01-05T22:34:04.807Z,99509.56
2024-01-05T22:36:31.821Z,99505.25
2024-01-05T22:38:58.867Z,99513.94
2024-01-05T22:41:25.940Z,99512.22
2024-01-05T22:43:53.723Z,99511.34
2024-01-05T22:46:22.765Z,99503.56
2024-01-05T22:48:50.581Z,99520.00
2024-01-05T22:51:22.340Z,99509.63
2024-01-05T22:53:49.803Z,99494.06
2024-01-05T22:56:16.855Z,99507.88
2024-01-05T22:58:43.910Z,99509.63
2024-01-05T23:01:26.401Z,99499.25
2024-01-05T23:03:53.645Z,99491.44
2024-01-05T23:06:21.367Z,99483.66
2024-01-05T23:08:48.360Z,99477.59
2024-01-05T23:11:15.347Z,99468.94
2024-01-05T23:13:42.296Z,99476.72
2024-01-05T23:16:09.616Z,99479.31
2024-01-05T23:18:37.100Z,99483.63
2024-01-05T23:21:05.243Z,99478.41
2024-01-05T23:23:32.288Z,99476.69
2024-01-05T23:25:59.415Z,99480.97
2024-01-05T23:28:26.503Z,99483.56
2024-01-05T23:30:54.208Z,99483.56
2024-01-05T23:33:21.655Z,99471.47
2024-01-05T23:35:48.878Z,99468.00
2024-01-05T23:38:15.979Z,99471.47
2024-01-05T23:40:42.927Z,99463.72
2024-01-05T23:43:09.875Z,99462.84
2024-01-05T23:45:36.998Z,99463.72
2024-01-05T23:48:04.312Z,99463.75
2024-01-05T23:50:31.513Z,99463.75
2024-01-05T23:52:59.077Z,99472.41
2024-01-05T23:55:26.823Z,99455.94
2024-01-05T23:57:54.113Z,99462.03
